Mise à jour:  Vendredi, 16 février 2007, 17h42 (UTC+4)
Trajectoire complète du système 01 01 Forte TEMPETE tropicale AROLA
Date et Heure
en UTC
(soit H+4
à La Réunion)
Longit.


(°Est)
Latitude


(°Sud)
Intensité
Dvorak
analysée
(1.0/8.0)

Type de système
analysé

Pression
minimale
estimée
(hPa)
Vent moyen
sur 10'
maxi estimé
(noeud,km/h)
Rafales
maximales
associées
(noeud,km/h)
06/11/2004 12:00 84.86 4.95 1.0 Zone perturbée 1007 20 kt, 37 km/h 28 kt, 52 km/h
06/11/2004 18:00 84.46 5.53 1.5 Perturbation tropicale 1006 25 kt, 46 km/h 35 kt, 65 km/h
07/11/2004 00:00 83.77 6.13 1.5 Perturbation tropicale 1005 25 kt, 46 km/h 35 kt, 65 km/h
07/11/2004 06:00 83.31 7.15 2.0 Perturbation tropicale 1004 25 kt, 46 km/h 35 kt, 65 km/h
07/11/2004 12:00 82.45 7.93 2.0 Perturbation tropicale 1002 25 kt, 46 km/h 35 kt, 65 km/h
07/11/2004 18:00 81.03 8.54 2.5 DEPRESSION tropicale 1000 30 kt, 55 km/h 42 kt, 78 km/h
08/11/2004 00:00 79.91 9.22 3.0 TEMPETE tropicale moderée 996 37 kt, 68 km/h 52 kt, 96 km/h
08/11/2004 06:00 79.24 9.79 3.0 TEMPETE tropicale moderée 993 43 kt, 79 km/h 60 kt, 112 km/h
08/11/2004 12:00 78.63 10.23 3.5 Forte TEMPETE tropicale 987 50 kt, 92 km/h 70 kt, 130 km/h
08/11/2004 18:00 78.07 10.66 4.0 Forte TEMPETE tropicale 978 60 kt, 111 km/h 84 kt, 156 km/h
09/11/2004 00:00 77.35 10.94 4.0 Forte TEMPETE tropicale 978 60 kt, 111 km/h 84 kt, 156 km/h
09/11/2004 06:00 76.55 10.86 4.0 Forte TEMPETE tropicale 978 60 kt, 111 km/h 84 kt, 156 km/h
09/11/2004 12:00 75.99 10.43 4.0 Forte TEMPETE tropicale 982 55 kt, 101 km/h 77 kt, 143 km/h
09/11/2004 18:00 75.77 10.31 3.5 Forte TEMPETE tropicale 985 52 kt, 96 km/h 73 kt, 135 km/h
10/11/2004 00:00 75.55 10.50 3.5 Forte TEMPETE tropicale 987 50 kt, 92 km/h 70 kt, 130 km/h
10/11/2004 06:00 75.15 10.81 3.5 Forte TEMPETE tropicale 988 50 kt, 92 km/h 70 kt, 130 km/h
10/11/2004 12:00 74.49 11.00 3.5 TEMPETE tropicale moderée 991 45 kt, 83 km/h 63 kt, 117 km/h
10/11/2004 18:00 74.21 11.02 3.0 TEMPETE tropicale moderée 995 40 kt, 74 km/h 56 kt, 104 km/h
11/11/2004 00:00 74.04 11.06 3.0 TEMPETE tropicale moderée 996 37 kt, 68 km/h 52 kt, 96 km/h
11/11/2004 06:00 73.97 11.13 3.0 TEMPETE tropicale moderée 996 37 kt, 68 km/h 52 kt, 96 km/h
11/11/2004 12:00 73.87 11.28 3.0 TEMPETE tropicale moderée 996 37 kt, 68 km/h 52 kt, 96 km/h
11/11/2004 18:00 73.77 11.43 2.5 TEMPETE tropicale moderée 997 35 kt, 64 km/h 49 kt, 91 km/h
12/11/2004 00:00 73.55 11.61 2.5 TEMPETE tropicale moderée 997 35 kt, 64 km/h 49 kt, 91 km/h
12/11/2004 06:00 73.15 11.96 2.5 DEPRESSION tropicale 999 33 kt, 61 km/h 46 kt, 86 km/h
12/11/2004 12:00 72.09 12.46 2.5 DEPRESSION tropicale 1000 30 kt, 55 km/h 42 kt, 78 km/h
12/11/2004 18:00 71.17 12.71 2.5 DEPRESSION tropicale 1001 30 kt, 55 km/h 42 kt, 78 km/h
13/11/2004 00:00 70.39 12.87 2.0 Perturbation tropicale 1002 27 kt, 50 km/h 38 kt, 70 km/h
13/11/2004 06:00 69.52 13.01 2.0 Perturbation tropicale 1003 25 kt, 46 km/h 35 kt, 65 km/h
13/11/2004 12:00 68.70 13.14 2.0 Perturbation tropicale 1004 25 kt, 46 km/h 35 kt, 65 km/h
13/11/2004 18:00 68.08 13.21 1.5 Perturbation tropicale 1005 25 kt, 46 km/h 35 kt, 65 km/h
14/11/2004 00:00 67.48 13.28 1.5 Perturbation tropicale 1005 25 kt, 46 km/h 35 kt, 65 km/h
14/11/2004 06:00 66.77 13.44 1.5 Perturbation tropicale 1005 25 kt, 46 km/h 35 kt, 65 km/h
14/11/2004 12:00 66.26 13.59 1.5 Perturbation tropicale 1005 25 kt, 46 km/h 35 kt, 65 km/h
14/11/2004 18:00 65.85 13.70 1.5 DEPRESSION se comblant 1006 20 kt, 37 km/h 28 kt, 52 km/h
15/11/2004 00:00 65.19 13.84 1.5 DEPRESSION se comblant 1006 20 kt, 37 km/h 28 kt, 52 km/h
15/11/2004 06:00 64.74 14.01 1.5 DEPRESSION se comblant 1006 20 kt, 37 km/h 28 kt, 52 km/h
15/11/2004 12:00 64.27 14.16 1.5 DEPRESSION se comblant 1006 20 kt, 37 km/h 28 kt, 52 km/h
15/11/2004 18:00 63.77 14.19 1.5 DEPRESSION se comblant 1007 20 kt, 37 km/h 28 kt, 52 km/h
16/11/2004 00:00 63.25 14.10 1.5 DEPRESSION se comblant 1007 20 kt, 37 km/h 28 kt, 52 km/h
16/11/2004 06:00 62.60 13.95 1.5 DEPRESSION se comblant 1008 20 kt, 37 km/h 28 kt, 52 km/h
16/11/2004 12:00 61.96 14.14 1.5 DEPRESSION se comblant 1008 20 kt, 37 km/h 28 kt, 52 km/h
16/11/2004 18:00 61.08 14.10 1.5 DEPRESSION se comblant 1008 20 kt, 37 km/h 28 kt, 52 km/h
17/11/2004 00:00 59.90 14.05   DEPRESSION se comblant 1009 20 kt, 37 km/h 28 kt, 52 km/h
17/11/2004 06:00 59.22 14.09   DEPRESSION se comblant 1009 20 kt, 37 km/h 28 kt, 52 km/h
17/11/2004 12:00 57.95 14.07   DEPRESSION se comblant 1009 20 kt, 37 km/h 28 kt, 52 km/h
17/11/2004 18:00 56.61 13.87   DEPRESSION se comblant 1010 20 kt, 37 km/h 28 kt, 52 km/h
18/11/2004 00:00 55.24 13.48   DEPRESSION se comblant 1010 20 kt, 37 km/h 28 kt, 52 km/h
18/11/2004 06:00 54.00 13.06   DEPRESSION se comblant 1010 20 kt, 37 km/h 28 kt, 52 km/h
18/11/2004 12:00 53.01 12.64   DEPRESSION se comblant 1010 20 kt, 37 km/h 28 kt, 52 km/h
18/11/2004 18:00 51.54 11.81   DEPRESSION se comblant 1011 20 kt, 37 km/h 28 kt, 52 km/h
Retour